createdAt,value
2023-02-25T00:01:36.325Z,55.30
2023-02-25T00:04:03.080Z,55.40
2023-02-25T00:06:29.927Z,55.60
2023-02-25T00:08:56.821Z,55.60
2023-02-25T00:11:25.928Z,55.60
2023-02-25T00:13:52.737Z,55.60
2023-02-25T00:16:21.460Z,55.60
2023-02-25T00:18:52.694Z,55.60
2023-02-25T00:21:19.433Z,55.50
2023-02-25T00:23:47.964Z,55.30
2023-02-25T00:26:16.417Z,55.30
2023-02-25T00:28:43.329Z,55.20
2023-02-25T00:31:15.839Z,55.30
2023-02-25T00:33:43.026Z,55.40
2023-02-25T00:36:13.624Z,55.20
2023-02-25T00:38:40.585Z,54.90
2023-02-25T00:41:12.201Z,55.10
2023-02-25T00:43:42.169Z,55.00
2023-02-25T00:46:09.830Z,54.60
2023-02-25T00:48:37.221Z,54.80
2023-02-25T01:02:18.392Z,54.80
2023-02-25T01:04:45.165Z,54.90
2023-02-25T01:07:11.923Z,54.80
2023-02-25T01:09:38.843Z,54.70
2023-02-25T01:12:05.650Z,54.70
2023-02-25T01:14:32.518Z,54.60
2023-02-25T01:17:02.063Z,54.80
2023-02-25T01:19:29.519Z,54.70
2023-02-25T01:21:58.774Z,54.70
2023-02-25T01:24:28.576Z,54.70
2023-02-25T01:26:57.390Z,54.70
2023-02-25T01:29:31.176Z,55.20
2023-02-25T01:32:00.822Z,54.80
2023-02-25T01:34:29.026Z,55.00
2023-02-25T01:36:56.367Z,54.80
2023-02-25T01:39:26.431Z,54.90
2023-02-25T01:41:56.043Z,54.80
2023-02-25T01:44:34.454Z,55.00
2023-02-25T01:47:04.350Z,55.20
2023-02-25T01:49:45.997Z,54.90
2023-02-25T01:52:18.621Z,55.00
2023-02-25T01:54:48.347Z,54.80
2023-02-25T01:57:17.941Z,54.90
2023-02-25T01:59:46.563Z,55.10
2023-02-25T02:02:17.042Z,55.40
2023-02-25T02:04:45.331Z,55.20
2023-02-25T02:07:13.223Z,54.90
2023-02-25T02:09:40.463Z,54.90
2023-02-25T02:12:07.935Z,54.80
2023-02-25T02:14:41.255Z,55.10
2023-02-25T02:17:25.624Z,55.00
2023-02-25T02:19:58.713Z,55.30
2023-02-25T02:22:56.225Z,55.30
2023-02-25T02:25:53.943Z,55.30
2023-02-25T02:28:32.716Z,55.30
2023-02-25T02:31:37.139Z,55.20
2023-02-25T02:34:16.849Z,55.20
2023-02-25T02:36:49.279Z,55.20
2023-02-25T02:39:37.101Z,55.40
2023-02-25T02:42:38.082Z,55.60
2023-02-25T02:45:18.984Z,55.80
2023-02-25T02:47:58.918Z,55.70
2023-02-25T02:50:41.499Z,55.80
2023-02-25T02:53:18.265Z,55.80
2023-02-25T02:55:49.745Z,55.80
2023-02-25T02:58:30.749Z,56.00
2023-02-25T03:01:08.765Z,55.90
2023-02-25T03:03:46.670Z,55.90
2023-02-25T03:06:25.840Z,56.20
2023-02-25T03:09:02.529Z,56.20
2023-02-25T03:11:29.373Z,56.10
2023-02-25T03:13:56.152Z,56.30
2023-02-25T03:16:48.083Z,56.40
2023-02-25T03:19:23.316Z,56.30
2023-02-25T03:21:55.756Z,56.40
2023-02-25T03:24:29.519Z,56.20
2023-02-25T03:26:56.377Z,56.40
2023-02-25T03:29:25.205Z,56.40
2023-02-25T03:31:56.460Z,56.70
2023-02-25T03:34:38.384Z,56.50
2023-02-25T03:37:28.595Z,56.70
2023-02-25T03:39:59.189Z,57.00
2023-02-25T03:42:33.009Z,56.80
2023-02-25T03:45:05.197Z,57.00
2023-02-25T03:47:37.166Z,56.80
2023-02-25T03:50:20.405Z,57.00
2023-02-25T03:52:47.196Z,56.70
2023-02-25T03:55:16.518Z,56.90
2023-02-25T03:57:45.669Z,56.90
2023-02-25T04:00:30.876Z,56.80
2023-02-25T04:02:57.957Z,56.90
2023-02-25T04:05:27.712Z,56.60
2023-02-25T04:07:55.741Z,57.70
2023-02-25T04:10:23.020Z,56.70
2023-02-25T04:12:52.847Z,56.70
2023-02-25T04:15:20.240Z,56.70
2023-02-25T04:17:47.301Z,56.70
2023-02-25T04:20:15.928Z,57.00
2023-02-25T04:22:42.869Z,56.60
2023-02-25T04:25:09.625Z,56.90
2023-02-25T04:27:36.421Z,56.40
2023-02-25T04:30:03.640Z,56.60
2023-02-25T04:32:30.495Z,56.60
2023-02-25T04:35:02.909Z,56.60
2023-02-25T04:37:30.841Z,56.60
2023-02-25T04:39:57.861Z,56.50
2023-02-25T04:42:24.791Z,56.40
2023-02-25T04:44:51.466Z,56.40
2023-02-25T04:47:19.276Z,56.20
2023-02-25T04:49:46.424Z,56.20
2023-02-25T04:52:14.588Z,56.20
2023-02-25T04:54:41.663Z,56.10
2023-02-25T04:57:09.114Z,56.20
2023-02-25T04:59:35.814Z,56.10
2023-02-25T05:02:02.626Z,56.20
2023-02-25T05:04:29.659Z,56.20
2023-02-25T05:06:56.467Z,56.30
2023-02-25T05:09:23.473Z,56.00
2023-02-25T05:11:50.238Z,56.10
2023-02-25T05:14:17.422Z,56.20
2023-02-25T05:16:44.225Z,55.90
2023-02-25T05:19:21.857Z,56.00
2023-02-25T05:21:53.093Z,55.90
2023-02-25T05:24:23.516Z,55.70
2023-02-25T05:26:51.721Z,55.70
2023-02-25T05:29:18.465Z,55.70
2023-02-25T05:31:45.499Z,55.70
2023-02-25T05:34:12.429Z,55.70
2023-02-25T05:36:40.356Z,55.70
2023-02-25T05:39:07.130Z,55.90
2023-02-25T05:41:33.890Z,55.80
2023-02-25T05:44:00.574Z,56.10
2023-02-25T05:46:27.732Z,55.80
2023-02-25T05:48:55.055Z,55.60
2023-02-25T05:51:23.453Z,55.60
2023-02-25T05:53:51.756Z,55.60
2023-02-25T05:56:21.572Z,55.50
2023-02-25T05:58:48.766Z,55.40
2023-02-25T06:01:18.416Z,55.40
2023-02-25T06:03:47.348Z,55.70
2023-02-25T06:06:15.545Z,55.60
2023-02-25T06:08:46.245Z,55.40
2023-02-25T06:11:23.006Z,55.50
2023-02-25T06:13:51.421Z,55.60
2023-02-25T06:16:18.699Z,55.60
2023-02-25T06:18:47.268Z,55.60
2023-02-25T06:21:15.053Z,55.70
2023-02-25T06:23:43.224Z,55.70
2023-02-25T06:26:11.883Z,55.70
2023-02-25T06:28:38.632Z,55.70
2023-02-25T06:31:15.388Z,55.80
2023-02-25T06:33:42.316Z,55.70
2023-02-25T06:36:09.532Z,56.00
2023-02-25T06:38:36.611Z,55.50
2023-02-25T06:41:14.193Z,55.50
2023-02-25T06:43:41.329Z,55.70
2023-02-25T06:46:10.605Z,55.50
2023-02-25T06:48:37.675Z,55.50
2023-02-25T06:51:09.381Z,55.60
2023-02-25T06:53:40.751Z,55.60
2023-02-25T06:56:08.457Z,55.60
2023-02-25T06:58:35.985Z,55.40
2023-02-25T07:01:09.989Z,55.60
2023-02-25T07:03:36.912Z,55.50
2023-02-25T07:06:04.144Z,55.50
2023-02-25T07:08:31.174Z,55.40
2023-02-25T07:11:29.840Z,56.10
2023-02-25T07:13:57.193Z,55.50
2023-02-25T07:16:24.259Z,55.40
2023-02-25T07:18:51.670Z,55.40
2023-02-25T07:21:19.401Z,55.10
2023-02-25T07:23:46.568Z,55.10
2023-02-25T07:26:14.379Z,55.00
2023-02-25T07:28:42.125Z,55.10
2023-02-25T07:31:18.576Z,55.00
2023-02-25T07:33:46.112Z,55.20
2023-02-25T07:36:13.015Z,55.10
2023-02-25T07:38:40.214Z,55.20
2023-02-25T07:41:07.764Z,55.30
2023-02-25T07:43:34.793Z,55.20
2023-02-25T07:46:02.404Z,55.10
2023-02-25T07:48:29.254Z,55.10
2023-02-25T07:50:56.577Z,55.30
2023-02-25T07:53:23.402Z,55.50
2023-02-25T07:55:50.517Z,55.90
2023-02-25T07:58:17.406Z,55.70
2023-02-25T08:00:46.215Z,56.00
2023-02-25T08:03:13.208Z,56.10
2023-02-25T08:05:40.022Z,56.30
2023-02-25T08:08:07.072Z,56.30
2023-02-25T08:10:33.941Z,56.40
2023-02-25T08:13:00.645Z,56.50
2023-02-25T08:15:27.397Z,56.70
2023-02-25T08:17:55.875Z,56.70
2023-02-25T08:20:22.744Z,56.90
2023-02-25T08:22:49.476Z,57.10
2023-02-25T08:25:16.252Z,57.10
2023-02-25T08:27:44.180Z,57.10
2023-02-25T08:30:11.849Z,57.00
2023-02-25T08:32:38.954Z,57.20
2023-02-25T08:35:06.103Z,57.00
2023-02-25T08:37:33.479Z,57.00
2023-02-25T08:40:00.277Z,56.90
2023-02-25T08:42:30.578Z,56.90
2023-02-25T08:44:57.281Z,57.00
2023-02-25T08:47:24.003Z,57.00
2023-02-25T08:49:50.686Z,57.00
2023-02-25T08:52:17.452Z,57.00
2023-02-25T08:54:44.110Z,56.70
2023-02-25T08:57:10.859Z,56.80
2023-02-25T08:59:38.105Z,56.70
2023-02-25T09:02:06.585Z,56.90
2023-02-25T09:04:34.426Z,57.00
2023-02-25T09:07:01.764Z,56.60
2023-02-25T09:09:29.224Z,57.20
2023-02-25T09:11:56.059Z,56.40
2023-02-25T09:14:22.788Z,56.40
2023-02-25T09:16:49.906Z,56.30
2023-02-25T09:19:18.364Z,56.30
2023-02-25T09:21:48.140Z,56.40
2023-02-25T09:24:15.715Z,56.40
2023-02-25T09:26:42.453Z,56.20
2023-02-25T09:29:09.668Z,56.30
2023-02-25T09:31:37.735Z,56.20
2023-02-25T09:34:07.712Z,56.10
2023-02-25T09:36:35.075Z,56.30
2023-02-25T09:39:02.532Z,56.30
2023-02-25T09:41:40.732Z,56.00
2023-02-25T09:44:28.758Z,55.90
2023-02-25T09:47:26.824Z,55.50
2023-02-25T09:50:14.946Z,55.70
2023-02-25T09:52:42.756Z,55.70
2023-02-25T09:55:19.767Z,55.50
2023-02-25T09:57:57.422Z,55.60
2023-02-25T10:00:24.228Z,55.70
2023-02-25T10:03:16.325Z,55.30
2023-02-25T10:06:05.725Z,55.40
2023-02-25T10:09:17.859Z,55.20
2023-02-25T10:12:10.623Z,54.70
2023-02-25T10:14:46.449Z,55.00
2023-02-25T10:17:22.747Z,54.50
2023-02-25T10:20:35.574Z,54.70
2023-02-25T10:23:02.248Z,54.10
2023-02-25T10:25:32.708Z,54.10
2023-02-25T10:28:13.968Z,54.20
2023-02-25T10:30:50.536Z,54.30
2023-02-25T10:33:22.387Z,54.30
2023-02-25T10:35:57.541Z,53.70
2023-02-25T10:38:24.296Z,53.70
2023-02-25T10:40:54.686Z,53.70
2023-02-25T10:43:24.106Z,53.80
2023-02-25T10:46:09.653Z,53.90
2023-02-25T10:48:37.073Z,53.80
2023-02-25T10:51:16.023Z,53.80
2023-02-25T10:53:57.883Z,53.70
2023-02-25T10:56:27.031Z,53.80
2023-02-25T10:59:35.409Z,54.10
2023-02-25T11:02:04.937Z,54.30
2023-02-25T11:04:36.313Z,54.40
2023-02-25T11:07:39.934Z,54.20
2023-02-25T11:10:12.958Z,53.50
2023-02-25T11:12:42.717Z,52.00
2023-02-25T11:15:50.055Z,51.10
2023-02-25T11:18:17.338Z,51.00
2023-02-25T11:21:08.338Z,49.30
2023-02-25T11:23:44.121Z,48.70
2023-02-25T11:26:35.218Z,48.00
2023-02-25T11:29:21.077Z,48.10
2023-02-25T11:31:59.066Z,47.60
2023-02-25T11:34:31.774Z,48.00
2023-02-25T11:37:24.724Z,47.80
2023-02-25T11:39:55.956Z,47.90
2023-02-25T11:42:25.807Z,48.70
2023-02-25T11:45:04.415Z,48.10
2023-02-25T11:47:38.206Z,47.80
2023-02-25T11:50:23.946Z,47.30
2023-02-25T11:53:02.540Z,46.30
2023-02-25T11:56:03.505Z,46.60
2023-02-25T11:58:48.072Z,46.40
2023-02-25T12:01:58.861Z,46.40
2023-02-25T12:04:44.139Z,45.80
2023-02-25T12:07:38.337Z,46.00
2023-02-25T12:10:34.041Z,45.80
2023-02-25T12:13:21.866Z,46.20
2023-02-25T12:16:30.332Z,46.50
2023-02-25T12:19:27.404Z,46.50
2023-02-25T12:22:14.919Z,46.80
2023-02-25T12:25:15.886Z,46.50
2023-02-25T12:27:52.449Z,46.20
2023-02-25T12:30:50.551Z,45.10
2023-02-25T12:33:50.948Z,44.50
2023-02-25T12:36:26.599Z,43.60
2023-02-25T12:38:59.111Z,42.90
2023-02-25T12:42:00.532Z,42.30
2023-02-25T12:44:45.863Z,41.70
2023-02-25T12:47:30.163Z,41.00
2023-02-25T12:50:22.105Z,40.40
2023-02-25T12:52:58.053Z,38.90
2023-02-25T12:55:55.918Z,38.30
2023-02-25T12:58:57.307Z,37.20
2023-02-25T13:01:53.008Z,37.00
2023-02-25T13:04:55.069Z,36.20
2023-02-25T13:07:44.874Z,36.40
2023-02-25T13:10:30.641Z,35.60
2023-02-25T13:13:31.388Z,36.40
2023-02-25T13:16:09.793Z,36.20
2023-02-25T13:18:43.394Z,35.60
2023-02-25T13:21:45.935Z,36.20
2023-02-25T13:24:37.046Z,35.40
2023-02-25T13:27:25.648Z,35.90
2023-02-25T13:30:12.132Z,36.20
2023-02-25T13:32:53.720Z,36.50
2023-02-25T13:35:39.541Z,36.50
2023-02-25T13:38:27.224Z,36.10
2023-02-25T13:41:05.916Z,36.20
2023-02-25T13:43:37.109Z,35.50
2023-02-25T13:46:29.780Z,35.50
2023-02-25T13:49:11.971Z,35.10
2023-02-25T13:52:07.388Z,34.80
2023-02-25T13:54:52.775Z,34.70
2023-02-25T13:57:38.023Z,33.90
2023-02-25T14:00:23.979Z,33.50
2023-02-25T14:03:28.491Z,33.80
2023-02-25T14:06:10.272Z,34.00
2023-02-25T14:09:08.159Z,32.40
2023-02-25T14:11:43.689Z,32.70
2023-02-25T14:14:29.003Z,31.90
2023-02-25T14:17:33.383Z,30.90
2023-02-25T14:20:15.268Z,31.40
2023-02-25T14:23:08.267Z,31.30
2023-02-25T14:25:42.297Z,31.30
2023-02-25T14:28:20.793Z,30.40
2023-02-25T14:31:20.506Z,30.00
2023-02-25T14:33:50.057Z,29.80
2023-02-25T14:36:38.261Z,30.70
2023-02-25T14:52:45.839Z,31.00
2023-02-25T14:55:29.512Z,30.90
2023-02-25T14:58:17.153Z,31.00
2023-02-25T15:00:43.841Z,30.00
2023-02-25T15:03:30.658Z,29.80
2023-02-25T15:06:22.301Z,29.80
2023-02-25T15:09:15.456Z,30.00
2023-02-25T15:11:50.027Z,30.20
2023-02-25T15:14:47.526Z,30.40
2023-02-25T15:17:29.335Z,30.60
2023-02-25T15:20:22.187Z,31.70
2023-02-25T15:23:07.644Z,31.20
2023-02-25T15:25:42.202Z,30.50
2023-02-25T15:28:30.542Z,30.90
2023-02-25T15:31:00.466Z,30.50
2023-02-25T15:33:34.419Z,30.70
2023-02-25T15:36:22.280Z,30.90
2023-02-25T15:38:49.259Z,31.20
2023-02-25T15:41:50.827Z,31.30
2023-02-25T15:44:17.478Z,30.80
2023-02-25T15:46:48.710Z,31.30
2023-02-25T15:49:26.747Z,31.10
2023-02-25T15:51:57.151Z,31.10
2023-02-25T15:54:29.893Z,31.10
2023-02-25T15:57:04.901Z,30.90
2023-02-25T15:59:52.983Z,30.70
2023-02-25T16:02:34.838Z,30.10
2023-02-25T16:05:18.707Z,29.70
2023-02-25T16:07:49.682Z,29.60
2023-02-25T16:10:19.121Z,29.80
2023-02-25T16:12:52.740Z,30.00
2023-02-25T16:15:42.060Z,30.00
2023-02-25T16:18:45.178Z,30.00
2023-02-25T16:21:18.114Z,30.00
2023-02-25T16:23:45.231Z,29.90
2023-02-25T16:26:38.291Z,29.70
2023-02-25T16:29:38.271Z,29.70
2023-02-25T16:32:20.452Z,30.20
2023-02-25T16:34:58.833Z,29.70
2023-02-25T16:37:37.317Z,29.70
2023-02-25T16:40:04.822Z,29.80
2023-02-25T16:42:36.364Z,29.90
2023-02-25T16:45:05.693Z,30.20
2023-02-25T16:47:36.695Z,30.00
2023-02-25T16:50:12.276Z,30.40
2023-02-25T16:52:47.204Z,30.20
2023-02-25T16:55:23.028Z,30.40
2023-02-25T16:58:18.537Z,30.30
2023-02-25T17:00:56.269Z,30.40
2023-02-25T17:03:26.096Z,30.40
2023-02-25T17:06:02.120Z,30.60
2023-02-25T17:08:29.523Z,31.00
2023-02-25T17:10:58.851Z,30.90
2023-02-25T17:13:31.435Z,30.80
2023-02-25T17:16:00.801Z,31.20
2023-02-25T17:18:32.646Z,31.00
2023-02-25T17:21:03.774Z,30.80
2023-02-25T17:23:31.521Z,31.00
2023-02-25T17:25:59.618Z,30.90
2023-02-25T17:28:30.399Z,30.80
2023-02-25T17:31:07.124Z,31.00
2023-02-25T17:33:34.653Z,31.00
2023-02-25T17:36:14.066Z,31.30
2023-02-25T17:38:45.536Z,31.10
2023-02-25T17:41:19.760Z,31.20
2023-02-25T17:43:46.677Z,31.40
2023-02-25T17:46:18.994Z,31.40
2023-02-25T17:49:02.649Z,31.40
2023-02-25T17:51:38.570Z,31.50
2023-02-25T17:54:09.188Z,31.60
2023-02-25T17:56:37.167Z,31.80
2023-02-25T17:59:30.451Z,31.70
2023-02-25T18:02:00.104Z,31.60
2023-02-25T18:04:35.304Z,31.80
2023-02-25T18:07:22.093Z,31.80
2023-02-25T18:09:49.741Z,32.00
2023-02-25T18:12:26.012Z,32.10
2023-02-25T18:14:57.083Z,32.30
2023-02-25T18:17:28.159Z,32.30
2023-02-25T18:19:57.884Z,32.20
2023-02-25T18:22:39.400Z,32.40
2023-02-25T18:25:27.860Z,32.50
2023-02-25T18:27:55.398Z,32.50
2023-02-25T18:30:26.101Z,32.60
2023-02-25T18:32:55.028Z,32.70
2023-02-25T18:35:22.196Z,32.60
2023-02-25T18:37:50.726Z,32.70
2023-02-25T18:40:25.077Z,33.30
2023-02-25T18:42:51.833Z,32.80
2023-02-25T18:45:21.147Z,32.70
2023-02-25T18:47:48.098Z,32.90
2023-02-25T18:50:15.528Z,33.00
2023-02-25T18:52:42.747Z,33.00
2023-02-25T18:55:16.793Z,33.20
2023-02-25T18:57:43.591Z,33.40
2023-02-25T19:00:11.228Z,33.50
2023-02-25T19:02:47.019Z,33.50
2023-02-25T19:05:13.848Z,33.20
2023-02-25T19:07:43.793Z,33.60
2023-02-25T19:10:16.096Z,33.70
2023-02-25T19:12:42.855Z,33.60
2023-02-25T19:15:15.127Z,33.50
2023-02-25T19:17:42.322Z,33.70
2023-02-25T19:20:12.565Z,34.00
2023-02-25T19:22:43.825Z,33.90
2023-02-25T19:25:36.417Z,33.90
2023-02-25T19:28:04.347Z,34.00
2023-02-25T19:30:37.216Z,34.00
2023-02-25T19:33:05.087Z,33.90
2023-02-25T19:35:34.709Z,34.00
2023-02-25T19:38:01.657Z,34.20
2023-02-25T19:40:31.629Z,34.10
2023-02-25T19:42:58.881Z,34.70
2023-02-25T19:45:26.555Z,34.30
2023-02-25T19:47:54.686Z,34.40
2023-02-25T19:50:24.782Z,34.40
2023-02-25T19:52:53.506Z,34.60
2023-02-25T19:55:20.654Z,34.60
2023-02-25T19:57:47.648Z,34.50
2023-02-25T20:00:17.799Z,34.70
2023-02-25T20:02:44.526Z,34.70
2023-02-25T20:05:11.778Z,34.90
2023-02-25T20:07:38.622Z,34.90
2023-02-25T20:10:10.886Z,35.10
2023-02-25T20:12:39.482Z,35.30
2023-02-25T20:15:07.078Z,35.10
2023-02-25T20:17:36.813Z,35.40
2023-02-25T20:20:04.689Z,35.40
2023-02-25T20:22:31.454Z,35.70
2023-02-25T20:24:58.173Z,35.80
2023-02-25T20:27:24.968Z,35.90
2023-02-25T20:29:51.663Z,36.10
2023-02-25T20:32:18.541Z,36.40
2023-02-25T20:34:45.465Z,36.40
2023-02-25T20:37:24.670Z,36.30
2023-02-25T20:39:54.919Z,36.70
2023-02-25T20:42:24.496Z,36.60
2023-02-25T20:44:52.320Z,37.00
2023-02-25T20:47:25.780Z,37.00
2023-02-25T20:49:54.417Z,37.10
2023-02-25T20:52:21.569Z,37.30
2023-02-25T20:54:49.950Z,37.50
2023-02-25T20:57:19.775Z,37.70
2023-02-25T20:59:46.852Z,37.70
2023-02-25T21:02:15.935Z,37.60
2023-02-25T21:04:44.121Z,37.80
2023-02-25T21:07:12.303Z,37.70
2023-02-25T21:09:39.752Z,37.70
2023-02-25T21:12:06.952Z,37.70
2023-02-25T21:14:34.260Z,37.80
2023-02-25T21:17:01.392Z,38.00
2023-02-25T21:19:28.434Z,38.20
2023-02-25T21:21:55.605Z,38.30
2023-02-25T21:24:22.668Z,38.20
2023-02-25T21:26:49.697Z,38.70
2023-02-25T21:29:18.646Z,39.00
2023-02-25T21:31:45.805Z,39.20
2023-02-25T21:34:14.900Z,39.50
2023-02-25T21:36:42.142Z,39.50
2023-02-25T21:39:09.530Z,39.40
2023-02-25T21:41:38.112Z,39.30
2023-02-25T21:44:05.072Z,39.10
2023-02-25T21:46:32.236Z,38.80
2023-02-25T21:48:59.457Z,38.80
2023-02-25T21:51:27.736Z,38.70
2023-02-25T21:53:59.345Z,38.90
2023-02-25T21:56:27.594Z,38.90
2023-02-25T21:58:55.926Z,38.80
2023-02-25T22:01:27.173Z,38.90
2023-02-25T22:03:54.733Z,38.90
2023-02-25T22:06:24.062Z,39.00
2023-02-25T22:08:51.559Z,39.00
2023-02-25T22:11:24.940Z,39.00
2023-02-25T22:13:52.644Z,38.90
2023-02-25T22:16:20.484Z,39.10
2023-02-25T22:18:47.317Z,39.10
2023-02-25T22:21:20.271Z,39.20
2023-02-25T22:23:48.743Z,39.30
2023-02-25T22:26:17.958Z,39.70
2023-02-25T22:28:45.512Z,39.70
2023-02-25T22:31:16.407Z,39.80
2023-02-25T22:33:44.117Z,39.90
2023-02-25T22:36:12.262Z,40.00
2023-02-25T22:38:41.123Z,40.40
2023-02-25T22:41:16.890Z,40.50
2023-02-25T22:43:44.125Z,40.90
2023-02-25T22:46:16.668Z,40.90
2023-02-25T22:48:45.432Z,41.30
2023-02-25T22:51:12.786Z,41.20
2023-02-25T22:53:40.893Z,41.60
2023-02-25T22:56:09.746Z,41.70
2023-02-25T22:58:38.972Z,41.60
2023-02-25T23:01:09.916Z,41.70
2023-02-25T23:03:38.501Z,41.90
2023-02-25T23:06:06.674Z,41.90
2023-02-25T23:08:34.511Z,42.10
2023-02-25T23:11:13.248Z,42.70
2023-02-25T23:13:47.409Z,42.00
2023-02-25T23:16:20.347Z,41.90
2023-02-25T23:18:48.788Z,42.30
2023-02-25T23:21:19.120Z,42.00
2023-02-25T23:23:48.484Z,42.10
2023-02-25T23:26:17.519Z,42.10
2023-02-25T23:28:45.067Z,42.40
2023-02-25T23:31:23.217Z,42.20
2023-02-25T23:33:50.020Z,42.20
2023-02-25T23:36:16.821Z,42.10
2023-02-25T23:38:44.001Z,42.30
2023-02-25T23:41:10.724Z,42.60
2023-02-25T23:43:37.510Z,42.30
2023-02-25T23:46:05.636Z,42.40
2023-02-25T23:48:32.768Z,42.50
2023-02-25T23:51:08.835Z,42.40
2023-02-25T23:53:36.220Z,43.40
2023-02-25T23:56:08.462Z,42.70
2023-02-25T23:58:35.485Z,43.00
